Mineola, Iowa
Current Conditions -  °F | °C
As of 7:35 AM on Friday 19 Dec 2014 (Local Time) from KCBF Reporting Station
Haze Haze  
Wind Chill: 25°   Ceiling: 400
Heat Index: 30°   Visibility: 3mi
Dew Point: 30°   Wind: 5mph
Humidity: 100%   Direction: 170°S
Pressure: 30.21"   Gusts: NA
Location:  41.14°N, 95.7°W
Report Text: KCBF 191335Z AUTO 17004KT 3SM BR OVC004 M01/M01 A3021 RMK AO2
Loading
Personal Weather Stations






























Interactive Weather Map New forecast layout! Learn more

10-Day Weather Forecast

Advertisements
Track Severe Weather on mobile